Sun Globe — 9HA2857 — position and weather

sailwx.info

Track history (hours):
 
Tides and Currents Weather Stations Pressure Air Temp Water Temp Dewpoint Dewpoint Depression Visibility Wind Speed Wind Dir Waves Ship Positions

Sun Globe

Last reported at 2018-Feb-15 16:53 UTC. Time now 2018-Feb-23 20:47 UTC.
Position N 26°31' W 014°56'.
Warning: this ship's position is 8 days out of date.

Length 190 m; draft 10.2 m.

Type: Cargo ship. MMSI: 256415000.

Date/timePositionNaut miles runAvg speedWind from/ knotsBaromVisibWave heightAir tempDewpointWater temp
2018-Feb-15 16:53N 26°31' W 014°56'511.9
2018-Feb-15 16:25N 26°35' W 014°52'511.8
2018-Feb-15 16:01N 26°39' W 014°49'1111.6
2018-Feb-15 15:02N 26°47' W 014°41'111.4
2018-Feb-15 14:57N 26°48' W 014°40'711.6
2018-Feb-15 14:22N 26°53' W 014°35'1212.1
2018-Feb-15 13:22N 27°02' W 014°26'411.9
2018-Feb-15 13:00N 27°06' W 014°23'611.6
2018-Feb-15 12:30N 27°10' W 014°19'611.4
2018-Feb-15 12:00N 27°14' W 014°15'611.6
2018-Feb-15 11:30N 27°19' W 014°10'611.6
2018-Feb-15 11:00N 27°23' W 014°06'611.5
2018-Feb-15 10:30N 27°28' W 014°02'611.7
2018-Feb-15 10:00N 27°32' W 013°58'612.0
2018-Feb-15 09:28N 27°37' W 013°53'612.3
2018-Feb-15 09:00N 27°41' W 013°49'712.4
2018-Feb-15 08:28N 27°47' W 013°44'612.1
2018-Feb-15 08:00N 27°51' W 013°40'612.1
2018-Feb-15 07:30N 27°55' W 013°35'612.4
2018-Feb-15 07:00N 27°59' W 013°30'812.2
2018-Feb-15 06:21N 28°06' W 013°25'411.9
2018-Feb-15 06:00N 28°09' W 013°22'611.7
2018-Feb-15 05:30N 28°13' W 013°17'610.7
2018-Feb-15 04:59N 28°18' W 013°14'511.2
2018-Feb-15 04:30N 28°23' W 013°12'611.7
2018-Feb-15 04:00N 28°28' W 013°09'611.7
2018-Feb-15 03:30N 28°33' W 013°05'612.0
2018-Feb-15 02:59N 28°38' W 013°02'1012.1
2018-Feb-15 02:10N 28°46' W 012°55'212.2
2018-Feb-15 01:59N 28°48' W 012°54'612.3
2018-Feb-15 01:30N 28°53' W 012°50'612.2
2018-Feb-15 00:59N 28°59' W 012°46'611.9
2018-Feb-15 00:30N 29°03' W 012°42'611.7
2018-Feb-14 23:58N 29°09' W 012°39'612.1
2018-Feb-14 23:30N 29°13' W 012°35'612.4
2018-Feb-14 23:00N 29°19' W 012°31'612.3
2018-Feb-14 22:30N 29°24' W 012°28'612.0
2018-Feb-14 22:00N 29°29' W 012°24'4211.8
2018-Feb-14 18:26N 30°05' W 011°58'1112.0
2018-Feb-14 17:29N 30°14' W 011°51'5212.1
2018-Feb-14 13:13N 30°58' W 011°19'312.4
2018-Feb-14 13:00N 31°00' W 011°17'41211.6
2018-Feb-13 01:23N 35°57' W 005°36'410.4
2018-Feb-13 01:00N 35°59' W 005°31'510.1
2018-Feb-13 00:30N 36°00' W 005°25'510.1
2018-Feb-13 00:01N 36°02' W 005°19'5 9.7
2018-Feb-12 23:30N 36°02' W 005°13'  
2018-Feb-05 18:17N 35°50' E 030°22'  
Track history (hours):
 
Tides and Currents Weather Stations Pressure Air Temp Water Temp Dewpoint Dewpoint Depression Visibility Wind Speed Wind Dir Waves Ship Positions

Sun Globe

Last reported at 2018-Feb-15 16:53 UTC. Time now 2018-Feb-23 20:47 UTC.
Position N 26°31' W 014°56'.
Warning: this ship's position is 8 days out of date.

Length 190 m; draft 10.2 m.

Type: Cargo ship. MMSI: 256415000.

Date/timePositionNaut miles runAvg speedWind from/ knotsBaromVisibWave heightAir tempDewpointWater temp
2018-Feb-15 16:53N 26°31' W 014°56'511.9
2018-Feb-15 16:25N 26°35' W 014°52'511.8
2018-Feb-15 16:01N 26°39' W 014°49'1111.6
2018-Feb-15 15:02N 26°47' W 014°41'111.4
2018-Feb-15 14:57N 26°48' W 014°40'711.6
2018-Feb-15 14:22N 26°53' W 014°35'1212.1
2018-Feb-15 13:22N 27°02' W 014°26'411.9
2018-Feb-15 13:00N 27°06' W 014°23'611.6
2018-Feb-15 12:30N 27°10' W 014°19'611.4
2018-Feb-15 12:00N 27°14' W 014°15'611.6
2018-Feb-15 11:30N 27°19' W 014°10'611.6
2018-Feb-15 11:00N 27°23' W 014°06'611.5
2018-Feb-15 10:30N 27°28' W 014°02'611.7
2018-Feb-15 10:00N 27°32' W 013°58'612.0
2018-Feb-15 09:28N 27°37' W 013°53'612.3
2018-Feb-15 09:00N 27°41' W 013°49'712.4
2018-Feb-15 08:28N 27°47' W 013°44'612.1
2018-Feb-15 08:00N 27°51' W 013°40'612.1
2018-Feb-15 07:30N 27°55' W 013°35'612.4
2018-Feb-15 07:00N 27°59' W 013°30'812.2
2018-Feb-15 06:21N 28°06' W 013°25'411.9
2018-Feb-15 06:00N 28°09' W 013°22'611.7
2018-Feb-15 05:30N 28°13' W 013°17'610.7
2018-Feb-15 04:59N 28°18' W 013°14'511.2
2018-Feb-15 04:30N 28°23' W 013°12'611.7
2018-Feb-15 04:00N 28°28' W 013°09'611.7
2018-Feb-15 03:30N 28°33' W 013°05'612.0
2018-Feb-15 02:59N 28°38' W 013°02'1012.1
2018-Feb-15 02:10N 28°46' W 012°55'212.2
2018-Feb-15 01:59N 28°48' W 012°54'612.3
2018-Feb-15 01:30N 28°53' W 012°50'612.2
2018-Feb-15 00:59N 28°59' W 012°46'611.9
2018-Feb-15 00:30N 29°03' W 012°42'611.7
2018-Feb-14 23:58N 29°09' W 012°39'612.1
2018-Feb-14 23:30N 29°13' W 012°35'612.4
2018-Feb-14 23:00N 29°19' W 012°31'612.3
2018-Feb-14 22:30N 29°24' W 012°28'612.0
2018-Feb-14 22:00N 29°29' W 012°24'4211.8
2018-Feb-14 18:26N 30°05' W 011°58'1112.0
2018-Feb-14 17:29N 30°14' W 011°51'5212.1
2018-Feb-14 13:13N 30°58' W 011°19'312.4
2018-Feb-14 13:00N 31°00' W 011°17'41211.6
2018-Feb-13 01:23N 35°57' W 005°36'410.4
2018-Feb-13 01:00N 35°59' W 005°31'510.1
2018-Feb-13 00:30N 36°00' W 005°25'510.1
2018-Feb-13 00:01N 36°02' W 005°19'5 9.7
2018-Feb-12 23:30N 36°02' W 005°13'  
2018-Feb-05 18:17N 35°50' E 030°22'  

Dump ship's entire track history